Richton Park, Illinois
Current Conditions -  °F | °C
As of 9:15 PM on Friday 21 Nov 2014 (Local Time) from KIGQ Reporting Station
Overcast Overcast  
Wind Chill: -6°   Ceiling: 3800
Heat Index: -1°   Visibility: 10mi
Dew Point: -11°   Wind: 9mph
Humidity: 49%   Direction: 190°S
Pressure: 30.27"   Gusts: NA
Location:  41.48°N, 87.72°W
Report Text: KIGQ 220315Z AUTO 19008KT 10SM OVC038 M01/M11 A3027 RMK AO2 T10101106
Loading
Personal Weather Stations






























Interactive Weather Map New forecast layout! Learn more

10-Day Weather Forecast

Advertisements
Track Severe Weather on mobile